Time;durP1;ratioP1;P1;durP2;ratioP2;P2;SDS_P1;SDS_P2;PMS_P1;PMS_P2;Temp;Humidity;BMP_temperature;BMP_pressure;BME280_temperature;BME280_humidity;BME280_pressure;Samples;Min_cycle;Max_cycle;Signal;HPM_P1;HPM_P2
2022/06/29 00:00:57;;;;;;;8.08;6.62;;;;;;;20.65;76.20;100861.19;1789556;80;20983;-85
2022/06/29 00:03:25;;;;;;;7.62;6.92;;;;;;;20.64;76.30;100859.49;1789356;80;21395;-85
2022/06/29 00:05:52;;;;;;;7.03;6.33;;;;;;;20.62;76.52;100859.30;1789477;79;20860;-86
2022/06/29 00:08:20;;;;;;;7.08;6.47;;;;;;;20.60;76.69;100854.12;1789465;80;20840;-86
2022/06/29 00:10:47;;;;;;;8.38;7.67;;;;;;;20.59;76.85;100860.95;1789420;80;21037;-85
2022/06/29 00:13:14;;;;;;;8.78;7.28;;;;;;;20.57;76.99;100853.60;1789494;79;21488;-86
2022/06/29 00:15:41;;;;;;;10.32;8.10;;;;;;;20.54;77.15;100859.18;1789401;80;20896;-85
2022/06/29 00:18:08;;;;;;;8.08;7.28;;;;;;;20.50;77.24;100858.16;1789788;79;21003;-86
2022/06/29 00:20:35;;;;;;;8.38;6.50;;;;;;;20.48;77.31;100860.14;1789410;80;21177;-84
2022/06/29 00:23:02;;;;;;;6.90;6.30;;;;;;;20.47;77.49;100868.27;1789256;80;21353;-85
2022/06/29 00:25:30;;;;;;;8.45;7.65;;;;;;;20.45;77.55;100871.11;1789244;79;20914;-86
2022/06/29 00:27:56;;;;;;;7.65;6.97;;;;;;;20.43;77.58;100871.75;1789267;80;21397;-85
2022/06/29 00:30:23;;;;;;;7.62;7.03;;;;;;;20.42;77.73;100871.89;1789224;80;20875;-84
2022/06/29 00:32:50;;;;;;;8.50;7.70;;;;;;;20.40;77.89;100869.87;1789395;80;21266;-85
2022/06/29 00:35:17;;;;;;;8.85;8.15;;;;;;;20.38;78.13;100875.34;1789358;80;20923;-85
2022/06/29 00:37:44;;;;;;;11.70;8.63;;;;;;;20.34;78.40;100879.78;1789450;79;20968;-85
2022/06/29 00:40:12;;;;;;;12.47;8.48;;;;;;;20.31;78.59;100877.42;1789350;80;21338;-86
2022/06/29 00:42:39;;;;;;;8.80;7.95;;;;;;;20.27;78.74;100876.88;1789630;79;21509;-85
2022/06/29 00:45:08;;;;;;;8.23;7.60;;;;;;;20.23;78.79;100875.02;1795097;80;21824;-84
2022/06/29 00:47:35;;;;;;;9.13;7.60;;;;;;;20.19;78.85;100871.48;1795030;79;20923;-85
2022/06/29 00:50:02;;;;;;;13.75;8.50;;;;;;;20.16;78.90;100879.74;1795020;80;20860;-85
2022/06/29 00:52:29;;;;;;;8.93;8.23;;;;;;;20.12;78.90;100878.36;1795096;79;20936;-86
2022/06/29 00:55:08;;;;;;;9.30;7.85;;;;;;;20.08;78.99;100879.16;1795041;79;20911;-85
2022/06/29 00:57:34;;;;;;;9.00;8.30;;;;;;;20.04;79.12;100875.95;1794930;80;21139;-85
2022/06/29 01:00:01;;;;;;;9.58;7.95;;;;;;;20.02;79.20;100874.42;1762605;80;20848;-84
2022/06/29 01:02:33;;;;;;;9.83;8.93;;;;;;;20.01;79.34;100874.06;1794822;79;20906;-84
2022/06/29 01:05:01;;;;;;;9.40;8.63;;;;;;;19.98;79.53;100875.20;1794806;79;21408;-86
2022/06/29 01:07:31;;;;;;;10.55;8.85;;;;;;;19.98;79.69;100871.20;1795137;80;20966;-86
2022/06/29 01:09:58;;;;;;;9.60;8.68;;;;;;;19.96;79.91;100869.68;1795018;79;21124;-86
2022/06/29 01:12:25;;;;;;;9.78;8.98;;;;;;;19.94;80.13;100871.14;1796508;79;20927;-85
2022/06/29 01:14:57;;;;;;;9.70;8.55;;;;;;;19.92;80.42;100878.47;1795449;80;20847;-87
2022/06/29 01:17:22;;;;;;;8.95;7.97;;;;;;;19.92;80.46;100877.14;1794459;79;21026;-85
2022/06/29 01:19:49;;;;;;;11.65;8.40;;;;;;;19.90;80.32;100870.25;1794902;79;20919;-86
2022/06/29 01:22:18;;;;;;;10.00;9.13;;;;;;;19.87;80.21;100872.22;1794887;79;21122;-86
2022/06/29 01:24:46;;;;;;;9.73;8.80;;;;;;;19.86;80.24;100868.41;1794836;79;20848;-86
2022/06/29 01:27:14;;;;;;;9.68;8.83;;;;;;;19.83;80.43;100869.53;1794871;79;20895;-87
2022/06/29 01:29:41;;;;;;;9.23;8.48;;;;;;;19.82;80.52;100874.50;1794831;79;20935;-85
2022/06/29 01:32:08;;;;;;;10.18;9.23;;;;;;;19.81;80.64;100874.63;1794953;80;21373;-86
2022/06/29 01:34:35;;;;;;;10.13;9.25;;;;;;;19.79;80.77;100873.47;1794942;79;21075;-87
2022/06/29 01:37:03;;;;;;;9.78;9.03;;;;;;;19.79;80.83;100877.46;1795011;79;21334;-85
2022/06/29 01:39:31;;;;;;;12.33;9.33;;;;;;;19.77;80.97;100879.92;1795034;80;20912;-87
2022/06/29 01:41:57;;;;;;;17.98;10.00;;;;;;;19.75;81.11;100875.23;1794772;80;21452;-87
2022/06/29 01:44:24;;;;;;;11.60;9.80;;;;;;;19.73;81.17;100875.38;1790980;79;21022;-87
2022/06/29 01:46:53;;;;;;;12.95;10.13;;;;;;;19.70;81.18;100874.34;1789459;80;20837;-87
2022/06/29 01:49:20;;;;;;;9.70;8.73;;;;;;;19.67;81.25;100878.11;1789299;79;20878;-87
2022/06/29 01:51:47;;;;;;;10.85;9.40;;;;;;;19.66;81.23;100880.41;1789408;80;20864;-85
2022/06/29 01:54:14;;;;;;;10.32;9.18;;;;;;;19.64;81.17;100875.72;1789463;80;20985;-87
2022/06/29 01:56:41;;;;;;;10.75;9.75;;;;;;;19.62;81.10;100876.85;1790049;80;20844;-86
2022/06/29 01:59:08;;;;;;;10.23;8.88;;;;;;;19.60;81.16;100882.80;1790020;79;21425;-86
2022/06/29 02:01:35;;;;;;;11.20;10.23;;;;;;;19.60;81.33;100878.81;1789635;80;20946;-86
2022/06/29 02:04:01;;;;;;;11.03;9.80;;;;;;;19.59;81.48;100881.97;1789628;80;20868;-86
2022/06/29 02:06:29;;;;;;;11.43;9.73;;;;;;;19.59;81.46;100880.64;1789614;80;20856;-86
2022/06/29 02:08:57;;;;;;;11.12;10.03;;;;;;;19.58;81.51;100876.78;1789637;80;20986;-85
2022/06/29 02:11:23;;;;;;;10.88;9.83;;;;;;;19.59;81.59;100872.66;1789809;80;21213;-86
2022/06/29 02:13:51;;;;;;;11.45;10.25;;;;;;;19.59;81.67;100874.48;1789499;80;20919;-86
2022/06/29 02:16:18;;;;;;;11.68;10.50;;;;;;;19.59;81.80;100877.15;1789526;79;20891;-87
2022/06/29 02:18:45;;;;;;;11.80;10.68;;;;;;;19.60;81.92;100869.50;1789425;80;20919;-86
2022/06/29 02:21:12;;;;;;;12.68;11.53;;;;;;;19.60;81.98;100866.84;1789475;80;20864;-87
2022/06/29 02:23:40;;;;;;;11.22;10.13;;;;;;;19.60;81.99;100867.67;1789645;79;21300;-87
2022/06/29 02:26:07;;;;;;;12.23;10.82;;;;;;;19.61;82.03;100874.69;1789516;80;20879;-87
2022/06/29 02:28:34;;;;;;;11.95;10.88;;;;;;;19.61;82.08;100874.69;1789412;79;21046;-87
2022/06/29 02:36:33;;;;;;;12.88;9.53;;;;;;;19.62;82.16;100867.04;1789512;80;21411;-85
2022/06/29 02:39:00;;;;;;;12.15;10.70;;;;;;;19.61;82.10;100876.02;1789299;80;20871;-86
2022/06/29 02:41:27;;;;;;;11.20;10.05;;;;;;;19.61;81.98;100877.84;1789271;79;20919;-86
2022/06/29 02:43:54;;;;;;;13.13;11.28;;;;;;;19.60;81.93;100875.66;1789191;80;20986;-86
2022/06/29 02:46:21;;;;;;;11.68;10.68;;;;;;;19.61;81.84;100878.68;1789459;79;21396;-86
2022/06/29 02:48:48;;;;;;;11.57;10.53;;;;;;;19.61;81.77;100875.19;1789556;80;21232;-86
2022/06/29 02:51:14;;;;;;;11.78;10.70;;;;;;;19.63;81.72;100883.37;1789442;79;20971;-87
2022/06/29 02:53:41;;;;;;;13.78;10.98;;;;;;;19.64;81.71;100888.19;1789733;80;20923;-85
2022/06/29 02:56:08;;;;;;;10.82;9.83;;;;;;;19.64;81.60;100891.69;1790038;80;20927;-85
2022/06/29 02:58:34;;;;;;;12.28;11.20;;;;;;;19.66;81.52;100891.05;1789631;80;21017;-87
2022/06/29 03:01:01;;;;;;;11.57;10.55;;;;;;;19.69;81.56;100897.93;1789582;79;21908;-87
2022/06/29 03:03:28;;;;;;;11.75;10.58;;;;;;;19.71;81.69;100887.98;1789485;80;20950;-86
2022/06/29 03:05:55;;;;;;;14.40;10.78;;;;;;;19.74;81.76;100885.52;1789592;80;20891;-87
2022/06/29 03:08:22;;;;;;;11.35;10.32;;;;;;;19.77;81.83;100890.57;1789609;79;20899;-87
2022/06/29 03:10:49;;;;;;;10.98;9.88;;;;;;;19.81;81.91;100886.14;1789661;79;20928;-86
2022/06/29 03:13:16;;;;;;;11.43;10.32;;;;;;;19.85;81.94;100885.34;1789614;80;21874;-86
2022/06/29 03:15:43;;;;;;;12.43;10.93;;;;;;;19.88;81.86;100884.56;1789464;80;21370;-87
2022/06/29 03:18:11;;;;;;;11.63;10.53;;;;;;;19.93;81.83;100887.28;1789532;79;20854;-86
2022/06/29 03:20:38;;;;;;;12.35;11.00;;;;;;;19.99;81.78;100885.38;1789529;79;20951;-85
2022/06/29 03:23:05;;;;;;;11.53;10.43;;;;;;;20.04;81.77;100889.76;1789353;80;20974;-86
2022/06/29 03:25:32;;;;;;;12.35;11.20;;;;;;;20.08;81.75;100886.66;1789821;80;21341;-87
2022/06/29 03:27:58;;;;;;;13.05;11.90;;;;;;;20.14;81.83;100881.71;1789704;79;21056;-87
2022/06/29 03:30:26;;;;;;;15.28;13.98;;;;;;;20.21;81.83;100881.45;1789628;80;20903;-87
2022/06/29 03:32:53;;;;;;;16.32;14.07;;;;;;;20.26;82.16;100880.04;1791473;80;20899;-86
2022/06/29 03:35:20;;;;;;;17.90;15.98;;;;;;;20.33;82.38;100881.62;1792286;78;20931;-86
2022/06/29 03:37:47;;;;;;;17.45;15.78;;;;;;;20.43;82.71;100891.73;1792175;78;21196;-86
2022/06/29 03:40:13;;;;;;;21.10;18.15;;;;;;;20.53;82.62;100890.33;1792097;79;20979;-86
2022/06/29 03:42:41;;;;;;;17.85;16.35;;;;;;;20.63;82.75;100895.61;1791982;78;21093;-88
2022/06/29 03:45:09;;;;;;;17.77;16.17;;;;;;;20.75;82.71;100892.25;1796194;78;20915;-87
2022/06/29 03:47:36;;;;;;;19.57;15.98;;;;;;;20.83;82.46;100885.17;1797535;78;21091;-88
2022/06/29 03:50:04;;;;;;;17.65;16.17;;;;;;;20.94;82.14;100878.75;1797623;78;21246;-86
2022/06/29 03:52:30;;;;;;;15.58;14.20;;;;;;;21.04;81.80;100883.52;1797519;78;20914;-86
2022/06/29 03:54:57;;;;;;;17.62;15.85;;;;;;;21.16;81.42;100890.77;1797485;78;20974;-86
2022/06/29 03:57:24;;;;;;;15.80;14.40;;;;;;;21.26;81.02;100887.53;1768752;78;20934;-87
2022/06/29 03:59:51;;;;;;;16.87;15.38;;;;;;;21.37;80.56;100887.78;1797614;79;20907;-87
2022/06/29 04:02:18;;;;;;;16.77;15.00;;;;;;;21.48;79.94;100890.72;1797492;78;21274;-87
2022/06/29 04:04:45;;;;;;;17.20;15.55;;;;;;;21.60;79.36;100900.63;1798127;78;20931;-87
2022/06/29 04:07:12;;;;;;;18.30;15.48;;;;;;;21.69;78.85;100897.84;1798625;80;20860;-86
2022/06/29 04:09:39;;;;;;;16.52;15.13;;;;;;;21.83;78.37;100910.27;1798653;79;20899;-88
2022/06/29 04:12:07;;;;;;;16.77;15.10;;;;;;;21.98;77.97;100907.84;1798362;79;20977;-87
2022/06/29 04:14:36;;;;;;;17.20;15.65;;;;;;;22.18;77.47;100911.11;1798208;80;21156;-86
2022/06/29 04:17:03;;;;;;;16.25;13.65;;;;;;;22.50;76.73;100911.27;1798162;79;20844;-87
2022/06/29 04:19:30;;;;;;;19.37;13.43;;;;;;;22.95;75.48;100916.69;1798307;79;20868;-86
2022/06/29 04:21:57;;;;;;;16.57;15.05;;;;;;;23.50;73.84;100926.41;1798445;79;21009;-87
2022/06/29 04:24:24;;;;;;;16.60;14.83;;;;;;;24.06;71.80;100919.80;1798339;80;20958;-87
2022/06/29 04:26:51;;;;;;;15.13;13.62;;;;;;;24.63;69.71;100925.41;1798154;78;21205;-86
2022/06/29 04:29:17;;;;;;;16.95;15.45;;;;;;;25.16;67.37;100921.84;1798419;80;20894;-85
2022/06/29 04:31:44;;;;;;;14.05;12.82;;;;;;;25.69;65.48;100932.64;1798464;79;20935;-85
2022/06/29 04:34:11;;;;;;;18.87;14.73;;;;;;;26.15;63.83;100936.53;1798203;80;20926;-86
2022/06/29 04:36:38;;;;;;;14.68;13.38;;;;;;;26.64;61.81;100943.16;1796152;80;21373;-87
2022/06/29 04:39:05;;;;;;;13.40;12.10;;;;;;;27.08;60.45;100936.78;1795160;80;21328;-86
2022/06/29 04:41:32;;;;;;;13.95;12.85;;;;;;;27.51;59.10;100938.62;1795050;80;20923;-86
2022/06/29 04:43:59;;;;;;;13.35;12.25;;;;;;;27.85;57.26;100930.57;1794112;79;21003;-86
2022/06/29 04:46:26;;;;;;;14.30;12.33;;;;;;;28.11;56.33;100926.37;1789365;80;20994;-87
2022/06/29 04:48:56;;;;;;;14.10;12.80;;;;;;;28.42;55.55;100925.88;1789621;80;20931;-86
2022/06/29 04:51:24;;;;;;;13.83;12.63;;;;;;;28.77;54.71;100929.00;1790807;79;21462;-86
2022/06/29 04:53:54;;;;;;;15.60;13.18;;;;;;;29.09;53.51;100938.23;1790590;79;21255;-85
2022/06/29 04:56:25;;;;;;;14.87;13.35;;;;;;;29.38;52.62;100940.21;1789836;80;20876;-84
2022/06/29 04:58:53;;;;;;;15.75;12.65;;;;;;;29.59;52.30;100937.79;1789290;80;21352;-85
2022/06/29 05:01:21;;;;;;;15.70;11.85;;;;;;;29.83;51.75;100938.50;1789748;80;20848;-85
2022/06/29 05:03:49;;;;;;;12.13;11.12;;;;;;;30.13;50.68;100942.08;1789483;79;21421;-85
2022/06/29 05:06:16;;;;;;;12.05;10.85;;;;;;;30.42;49.70;100938.56;1789269;79;20922;-86
2022/06/29 05:08:43;;;;;;;13.55;11.38;;;;;;;30.72;48.84;100938.80;1789330;80;20923;-86
2022/06/29 05:11:14;;;;;;;13.55;12.15;;;;;;;31.02;48.15;100936.34;1789411;80;20864;-87
2022/06/29 05:13:42;;;;;;;11.85;10.75;;;;;;;31.26;47.52;100944.69;1789443;80;20912;-87
2022/06/29 05:16:11;;;;;;;12.33;11.22;;;;;;;31.45;47.00;100942.37;1789100;79;20915;-87
2022/06/29 05:18:37;;;;;;;11.95;10.68;;;;;;;31.69;46.27;100947.47;1789379;80;20923;-87
2022/06/29 05:21:05;;;;;;;11.25;10.15;;;;;;;31.96;45.79;100948.54;1789429;79;20954;-87
2022/06/29 05:23:32;;;;;;;12.00;10.48;;;;;;;32.21;44.82;100943.05;1789374;80;20910;-87
2022/06/29 05:26:00;;;;;;;12.03;10.60;;;;;;;32.44;44.07;100941.00;1789722;80;20942;-88
2022/06/29 05:28:26;;;;;;;12.50;11.30;;;;;;;32.65;43.46;100941.58;1789186;79;21279;-90
2022/06/29 05:30:53;;;;;;;15.65;10.08;;;;;;;32.76;43.47;100941.61;1789259;79;20914;-87
2022/06/29 05:33:20;;;;;;;13.00;11.00;;;;;;;32.89;43.44;100941.13;1789404;80;20919;-88
2022/06/29 05:35:47;;;;;;;10.88;9.83;;;;;;;33.05;42.68;100939.08;1789615;79;21424;-88
2022/06/29 05:38:14;;;;;;;12.07;10.48;;;;;;;33.26;41.98;100936.35;1789369;80;21411;-88
2022/06/29 05:40:42;;;;;;;10.88;9.53;;;;;;;33.51;41.99;100939.41;1789465;80;21171;-87
2022/06/29 05:43:09;;;;;;;11.90;9.83;;;;;;;33.73;41.64;100934.19;1789414;80;20864;-87
2022/06/29 05:45:36;;;;;;;11.85;10.72;;;;;;;33.95;40.79;100933.89;1789369;80;21425;-87
2022/06/29 05:48:04;;;;;;;11.45;10.32;;;;;;;34.11;40.02;100929.61;1789476;80;20848;-87
2022/06/29 05:50:31;;;;;;;10.58;9.38;;;;;;;34.21;40.26;100929.80;1789530;80;20880;-86
2022/06/29 05:52:58;;;;;;;10.45;9.53;;;;;;;34.38;40.02;100931.23;1789385;79;21209;-87
2022/06/29 05:55:26;;;;;;;15.15;10.48;;;;;;;34.58;39.42;100928.61;1789234;79;21532;-88
2022/06/29 05:59:28;;;;;;;15.40;9.93;;;;;;;34.89;38.76;100925.92;1816748;79;22696;-89
2022/06/29 06:01:55;;;;;;;13.80;10.28;;;;;;;34.91;38.78;100918.33;1790011;80;20931;-87
2022/06/29 06:04:23;;;;;;;10.05;9.08;;;;;;;34.92;38.38;100919.96;1789817;80;21242;-88
2022/06/29 06:06:50;;;;;;;10.45;9.45;;;;;;;34.93;37.96;100918.91;1789768;80;21380;-87
2022/06/29 06:09:22;;;;;;;10.53;9.40;;;;;;;34.93;38.14;100919.41;1789784;80;20884;-88
2022/06/29 06:11:47;;;;;;;10.85;9.75;;;;;;;35.04;38.15;100922.09;1790032;80;20904;-87
2022/06/29 06:14:14;;;;;;;12.60;11.03;;;;;;;35.18;37.67;100928.05;1790449;79;20888;-87
2022/06/29 06:16:41;;;;;;;12.07;9.30;;;;;;;35.14;37.48;100922.80;1790384;80;21213;-87
2022/06/29 06:19:08;;;;;;;11.35;10.23;;;;;;;35.12;37.49;100926.31;1790083;80;21385;-88
2022/06/29 06:21:35;;;;;;;9.65;8.75;;;;;;;35.21;37.74;100931.64;1790167;80;20959;-86
2022/06/29 06:24:02;;;;;;;9.58;8.63;;;;;;;35.37;37.83;100931.87;1790566;80;21484;-86
2022/06/29 06:26:31;;;;;;;9.73;8.18;;;;;;;35.58;37.16;100931.11;1790537;80;20888;-87
2022/06/29 06:28:58;;;;;;;9.63;8.70;;;;;;;35.84;36.62;100930.10;1790711;80;21160;-87
2022/06/29 06:31:26;;;;;;;10.98;8.68;;;;;;;36.11;35.82;100935.66;1790924;80;20957;-87
2022/06/29 06:33:53;;;;;;;8.80;8.15;;;;;;;36.37;35.37;100935.96;1790760;80;20935;-87
2022/06/29 06:36:22;;;;;;;12.50;8.55;;;;;;;36.61;34.82;100937.34;1788369;80;20947;-87
2022/06/29 06:38:48;;;;;;;8.55;7.85;;;;;;;36.81;34.87;100930.42;1791269;79;20888;-88
2022/06/29 06:41:21;;;;;;;12.05;8.00;;;;;;;36.96;34.46;100929.19;1791204;80;21231;-87
2022/06/29 06:43:55;;;;;;;9.23;7.62;;;;;;;37.14;34.05;100926.62;1790832;80;20860;-86
2022/06/29 06:46:22;;;;;;;11.65;8.28;;;;;;;37.28;33.83;100926.44;1790977;80;20888;-87
2022/06/29 06:48:53;;;;;;;10.60;8.43;;;;;;;37.43;33.66;100927.09;1791533;80;21343;-86
2022/06/29 06:51:21;;;;;;;8.10;7.30;;;;;;;37.59;33.23;100933.50;1791012;80;21386;-85
2022/06/29 06:53:48;;;;;;;13.32;8.55;;;;;;;37.73;32.72;100931.11;1791004;80;21210;-87
2022/06/29 06:56:15;;;;;;;9.68;8.00;;;;;;;37.81;32.78;100931.98;1791563;80;20932;-88
2022/06/29 06:58:43;;;;;;;11.03;7.70;;;;;;;37.90;32.36;100931.73;1785277;77;20944;-87
2022/06/29 07:01:10;;;;;;;11.22;7.60;;;;;;;38.01;32.25;100939.45;1779262;79;20921;-87
2022/06/29 07:03:38;;;;;;;8.43;7.55;;;;;;;38.21;32.18;100940.66;1779074;79;20971;-87
2022/06/29 07:06:08;;;;;;;8.20;7.28;;;;;;;38.36;31.71;100943.45;1778838;79;21151;-86
2022/06/29 07:08:37;;;;;;;10.03;7.15;;;;;;;38.51;31.15;100939.92;1778997;79;20885;-87
2022/06/29 07:11:04;;;;;;;8.03;7.33;;;;;;;38.58;31.11;100940.51;1778655;80;20932;-87
2022/06/29 07:13:34;;;;;;;7.35;6.75;;;;;;;38.68;31.07;100942.42;1778940;79;20908;-86
2022/06/29 07:16:03;;;;;;;7.60;7.00;;;;;;;38.83;31.16;100943.00;1778174;79;20944;-86
2022/06/29 07:18:31;;;;;;;7.05;6.50;;;;;;;38.98;30.42;100940.29;1778235;79;21123;-86
2022/06/29 07:20:58;;;;;;;9.95;7.05;;;;;;;39.09;30.23;100942.48;1778213;79;20962;-86
2022/06/29 07:23:27;;;;;;;7.95;7.25;;;;;;;39.21;29.81;100939.45;1778691;79;20928;-85
2022/06/29 07:25:56;;;;;;;8.98;8.23;;;;;;;39.36;30.42;100936.69;1778855;79;20936;-87
2022/06/29 07:28:23;;;;;;;6.65;6.00;;;;;;;39.49;30.36;100941.63;1778993;79;20905;-86
2022/06/29 07:30:51;;;;;;;8.73;6.78;;;;;;;39.59;29.58;100938.83;1778872;80;21127;-88
2022/06/29 07:33:18;;;;;;;8.50;6.33;;;;;;;39.65;29.08;100939.66;1778890;80;20932;-87
2022/06/29 07:35:45;;;;;;;10.30;6.95;;;;;;;39.71;29.13;100930.83;1779143;79;20888;-88
2022/06/29 07:38:12;;;;;;;7.55;6.92;;;;;;;39.75;28.89;100936.86;1778529;80;21055;-88
2022/06/29 07:40:39;;;;;;;9.50;8.78;;;;;;;39.82;28.95;100935.74;1778749;79;21015;-88
2022/06/29 07:43:06;;;;;;;7.10;6.42;;;;;;;39.91;29.02;100932.18;1778915;80;21076;-88
2022/06/29 07:45:33;;;;;;;28.07;25.57;;;;;;;39.97;28.77;100935.71;1778762;79;20952;-89
2022/06/29 07:48:00;;;;;;;16.35;14.73;;;;;;;40.09;28.54;100927.97;1778852;80;20908;-86
2022/06/29 07:50:27;;;;;;;11.45;7.53;;;;;;;40.20;28.37;100919.94;1777985;80;20842;-87
2022/06/29 07:52:54;;;;;;;16.25;14.75;;;;;;;40.18;28.10;100922.15;1775944;80;20877;-88
2022/06/29 07:55:21;;;;;;;11.50;10.53;;;;;;;40.15;28.03;100918.58;1775853;80;21120;-87
2022/06/29 07:57:50;;;;;;;8.00;6.80;;;;;;;39.97;28.29;100924.16;1775753;80;20987;-86
2022/06/29 08:00:17;;;;;;;6.90;5.53;;;;;;;40.02;28.36;100922.50;1784228;80;20864;-89
2022/06/29 08:02:44;;;;;;;10.48;5.12;;;;;;;40.10;27.42;100922.73;1783974;80;20983;-87
2022/06/29 08:05:11;;;;;;;5.58;4.90;;;;;;;40.14;27.05;100918.32;1784210;80;20935;-87
2022/06/29 08:07:39;;;;;;;6.05;5.10;;;;;;;40.17;26.89;100917.73;1784174;80;20903;-88
2022/06/29 08:10:08;;;;;;;8.05;5.55;;;;;;;40.29;26.39;100920.73;1784148;80;21382;-88
2022/06/29 08:12:35;;;;;;;7.17;4.10;;;;;;;40.33;26.62;100917.16;1784262;80;20963;-88
2022/06/29 08:15:04;;;;;;;6.78;4.83;;;;;;;40.46;25.71;100914.86;1784281;80;21461;-88
2022/06/29 08:17:32;;;;;;;5.15;4.67;;;;;;;40.60;25.58;100922.18;1784003;80;21042;-88
2022/06/29 08:19:59;;;;;;;5.47;4.97;;;;;;;40.75;24.89;100911.63;1784159;80;21206;-88
2022/06/29 08:22:26;;;;;;;10.68;4.45;;;;;;;40.87;25.64;100911.27;1783861;80;20881;-87
2022/06/29 08:24:53;;;;;;;9.83;4.45;;;;;;;40.97;25.25;100911.16;1784250;80;20881;-87
2022/06/29 08:27:22;;;;;;;8.80;4.53;;;;;;;41.06;24.98;100910.55;1784093;80;20856;-89
2022/06/29 08:29:50;;;;;;;5.53;4.92;;;;;;;41.14;24.68;100912.14;1783891;80;20888;-87
2022/06/29 08:32:17;;;;;;;4.50;4.20;;;;;;;41.20;24.60;100906.02;1784195;80;21403;-87
2022/06/29 08:34:44;;;;;;;7.17;4.28;;;;;;;41.24;23.82;100904.89;1785836;80;20884;-87
2022/06/29 08:37:11;;;;;;;7.53;4.33;;;;;;;41.25;23.45;100903.23;1784869;80;20881;-88
2022/06/29 08:39:38;;;;;;;4.67;3.98;;;;;;;41.15;23.57;100901.38;1784789;80;20924;-88
2022/06/29 08:42:07;;;;;;;33.70;30.55;;;;;;;41.14;23.57;100908.58;1784411;80;21639;-89
2022/06/29 08:44:37;;;;;;;5.87;5.37;;;;;;;41.13;23.83;100897.25;1784360;80;21286;-89
2022/06/29 08:47:05;;;;;;;7.00;5.30;;;;;;;41.16;23.24;100911.30;1753949;80;21425;-87
2022/06/29 08:49:32;;;;;;;4.80;4.47;;;;;;;41.17;22.73;100901.10;1784189;80;20970;-88
2022/06/29 08:51:59;;;;;;;5.75;4.90;;;;;;;41.19;23.52;100905.20;1784312;80;20943;-87
2022/06/29 08:54:26;;;;;;;4.83;4.47;;;;;;;41.23;23.22;100899.95;1784494;80;20987;-87
2022/06/29 08:56:53;;;;;;;5.67;5.17;;;;;;;41.25;23.03;100903.23;1784110;80;21564;-88
2022/06/29 08:59:22;;;;;;;4.47;4.17;;;;;;;41.23;21.81;100904.64;1779560;80;21010;-87
2022/06/29 09:01:50;;;;;;;4.12;3.80;;;;;;;41.12;21.82;100903.88;1776107;80;20869;-86
2022/06/29 09:04:18;;;;;;;7.50;4.08;;;;;;;41.01;22.49;100908.66;1775926;80;20923;-85
2022/06/29 09:06:45;;;;;;;3.95;3.65;;;;;;;40.85;22.79;100904.42;1775965;80;20880;-87
2022/06/29 09:09:13;;;;;;;4.87;4.53;;;;;;;40.75;23.38;100910.81;1776162;80;21132;-86
2022/06/29 09:11:44;;;;;;;7.08;5.42;;;;;;;40.76;24.08;100913.28;1776307;80;21425;-88
2022/06/29 09:14:19;;;;;;;5.45;4.70;;;;;;;40.85;23.95;100910.73;1776063;80;20884;-88
2022/06/29 09:16:56;;;;;;;4.22;3.92;;;;;;;40.89;23.55;100922.81;1775702;80;20944;-86
2022/06/29 09:19:36;;;;;;;5.20;4.60;;;;;;;40.86;23.57;100908.23;1775677;80;20944;-87
2022/06/29 09:22:03;;;;;;;5.08;4.70;;;;;;;40.88;23.77;100913.45;1775748;80;21143;-87
2022/06/29 09:24:32;;;;;;;8.35;7.50;;;;;;;40.87;23.35;100896.67;1775883;80;21370;-87
2022/06/29 09:27:11;;;;;;;16.07;5.30;;;;;;;40.91;23.76;100892.23;1775599;80;21335;-86
2022/06/29 09:29:41;;;;;;;8.00;4.45;;;;;;;40.96;23.16;100893.59;1775759;80;20896;-87
2022/06/29 09:32:16;;;;;;;4.58;4.15;;;;;;;40.81;23.45;100889.84;1776146;80;20873;-88
2022/06/29 09:34:48;;;;;;;6.28;4.08;;;;;;;40.80;24.20;100888.22;1776253;80;21153;-86
2022/06/29 09:37:22;;;;;;;4.37;3.83;;;;;;;40.87;23.16;100892.02;1775833;80;20916;-87
2022/06/29 09:39:54;;;;;;;4.60;4.30;;;;;;;40.83;23.08;100886.81;1775807;80;21416;-89
2022/06/29 09:42:26;;;;;;;4.30;3.90;;;;;;;40.72;23.26;100883.89;1776117;80;20857;-89
2022/06/29 09:44:53;;;;;;;5.92;3.75;;;;;;;40.67;23.38;100877.04;1775748;80;21046;-88
2022/06/29 09:47:22;;;;;;;5.62;5.05;;;;;;;40.42;23.73;100876.11;1775801;80;21184;-90
2022/06/29 09:49:56;;;;;;;5.50;3.58;;;;;;;40.26;24.36;100871.80;1775822;80;20901;-88
2022/06/29 09:52:23;;;;;;;3.80;3.45;;;;;;;40.25;24.65;100874.30;1776074;80;20921;-88
2022/06/29 09:54:58;;;;;;;7.67;4.70;;;;;;;40.36;23.81;100871.77;1775904;80;20877;-87
2022/06/29 09:57:30;;;;;;;8.80;3.90;;;;;;;40.59;23.70;100877.09;1775879;80;20987;-87
2022/06/29 10:02:54;;;;;;;5.05;3.42;;;;;;;40.89;23.54;100876.58;1784139;80;20940;-89
2022/06/29 10:05:54;;;;;;;3.42;3.12;;;;;;;41.07;22.66;100877.23;1783964;80;20928;-88
2022/06/29 10:07:58;;;;;;;3.12;2.67;;;;;;;41.16;22.83;100876.89;1779761;80;21343;-89
2022/06/29 10:10:26;;;;;;;5.87;3.25;;;;;;;41.18;22.71;100876.61;1784537;80;20888;-89
2022/06/29 10:15:53;;;;;;;4.03;3.05;;;;;;;40.74;23.08;100873.43;1784486;80;20911;-90
2022/06/29 10:18:32;;;;;;;5.35;3.40;;;;;;;40.64;23.24;100885.28;1784312;80;20904;-90
2022/06/29 10:20:59;;;;;;;4.05;3.22;;;;;;;40.66;22.01;100871.26;1784499;80;20868;-89
2022/06/29 10:23:58;;;;;;;4.42;2.75;;;;;;;40.62;22.50;100876.50;1784523;80;20995;-90
2022/06/29 10:26:36;;;;;;;10.53;4.35;;;;;;;40.66;22.99;100874.82;1784639;80;21138;-88
2022/06/29 10:29:11;;;;;;;5.92;4.05;;;;;;;40.75;22.87;100876.43;1784385;80;21402;-91
2022/06/29 10:31:59;;;;;;;4.78;3.65;;;;;;;40.71;22.74;100873.98;1783958;80;20841;-90
2022/06/29 10:35:05;;;;;;;5.65;4.80;;;;;;;40.47;22.54;100882.15;1783939;80;20907;-88
2022/06/29 10:37:14;;;;;;;3.90;3.55;;;;;;;40.19;22.86;100881.18;1779712;80;20888;-88
2022/06/29 10:39:51;;;;;;;3.75;3.33;;;;;;;40.06;23.28;100873.57;1784081;80;21206;-88
2022/06/29 10:45:22;;;;;;;6.00;4.55;;;;;;;39.99;23.63;100878.00;1784601;80;20912;-91
2022/06/29 10:48:05;;;;;;;3.30;3.10;;;;;;;39.79;24.00;100876.15;1784522;80;20931;-87
2022/06/29 10:50:31;;;;;;;5.50;3.58;;;;;;;39.40;24.10;100876.05;1784122;80;20892;-90
2022/06/29 10:53:05;;;;;;;3.40;3.17;;;;;;;38.90;24.59;100871.68;1784653;80;21150;-91
2022/06/29 10:55:41;;;;;;;4.25;3.85;;;;;;;38.48;25.08;100871.41;1784382;80;21034;-88
2022/06/29 10:58:08;;;;;;;5.78;4.12;;;;;;;38.35;25.91;100879.61;1779508;80;21338;-90
2022/06/29 11:00:44;;;;;;;5.75;5.05;;;;;;;38.40;26.47;100876.57;1784873;80;20952;-89
2022/06/29 11:03:25;;;;;;;5.35;3.60;;;;;;;38.57;26.52;100871.69;1784834;80;20876;-88
2022/06/29 11:17:02;;;;;;;4.17;3.87;;;;;;;38.68;25.71;100878.81;1784682;80;20873;-88
2022/06/29 11:19:34;;;;;;;5.15;4.00;;;;;;;38.70;24.72;100873.88;1784538;80;21221;-88
2022/06/29 11:22:16;;;;;;;7.28;4.03;;;;;;;38.71;25.20;100868.69;1784376;80;20975;-90
2022/06/29 11:24:58;;;;;;;4.37;3.90;;;;;;;38.72;25.22;100866.20;1784335;80;20927;-90
2022/06/29 11:27:37;;;;;;;6.22;5.42;;;;;;;38.65;25.77;100867.59;1784453;80;20978;-88
2022/06/29 11:30:10;;;;;;;4.60;4.20;;;;;;;38.58;26.07;100859.64;1784366;80;20945;-90
2022/06/29 11:32:42;;;;;;;3.98;3.77;;;;;;;38.36;26.13;100850.27;1785444;80;21190;-90
2022/06/29 11:35:10;;;;;;;5.35;4.85;;;;;;;38.12;26.39;100856.25;1784663;80;20979;-89
2022/06/29 11:37:37;;;;;;;4.83;4.42;;;;;;;37.95;26.59;100841.94;1784373;80;20856;-88
2022/06/29 11:40:05;;;;;;;5.10;4.67;;;;;;;37.73;26.75;100843.51;1784333;80;20913;-89
2022/06/29 11:45:20;;;;;;;5.00;4.60;;;;;;;37.28;27.50;100836.71;1784245;80;21897;-86
2022/06/29 11:47:52;;;;;;;4.47;4.05;;;;;;;37.07;27.63;100836.56;1784098;80;20884;-88
2022/06/29 11:50:22;;;;;;;5.25;4.53;;;;;;;36.90;28.23;100841.37;1784297;80;20920;-89
2022/06/29 11:52:50;;;;;;;4.92;4.53;;;;;;;36.69;27.65;100845.87;1784101;80;20964;-89
2022/06/29 11:55:38;;;;;;;5.12;4.60;;;;;;;36.47;27.77;100840.45;1784755;80;20869;-89